createdAt,value
2023-04-21T00:00:59.250Z,7.80
2023-04-21T00:03:28.100Z,7.82
2023-04-21T00:06:01.542Z,7.97
2023-04-21T00:08:28.159Z,7.45
2023-04-21T00:10:54.634Z,7.75
2023-04-21T00:13:21.095Z,6.90
2023-04-21T00:15:47.663Z,6.78
2023-04-21T00:18:14.266Z,6.50
2023-04-21T00:20:41.575Z,7.20
2023-04-21T00:23:10.911Z,7.25
2023-04-21T00:25:37.364Z,6.35
2023-04-21T00:28:03.807Z,6.95
2023-04-21T00:30:30.470Z,7.40
2023-04-21T00:32:57.053Z,6.53
2023-04-21T00:35:23.561Z,6.63
2023-04-21T00:37:52.793Z,6.68
2023-04-21T00:40:19.564Z,6.18
2023-04-21T00:42:46.042Z,6.47
2023-04-21T00:45:12.606Z,6.57
2023-04-21T00:47:39.148Z,6.93
2023-04-21T00:50:05.895Z,6.85
2023-04-21T00:52:33.815Z,6.65
2023-04-21T00:55:00.399Z,6.65
2023-04-21T00:57:28.518Z,6.63
2023-04-21T00:59:55.214Z,6.70
2023-04-21T01:02:22.744Z,6.82
2023-04-21T01:04:49.673Z,7.35
2023-04-21T01:07:16.187Z,7.03
2023-04-21T01:09:42.672Z,6.72
2023-04-21T01:12:10.055Z,6.78
2023-04-21T01:14:37.596Z,6.75
2023-04-21T01:17:06.102Z,6.90
2023-04-21T01:19:34.368Z,7.35
2023-04-21T01:22:02.026Z,8.15
2023-04-21T01:24:37.774Z,7.15
2023-04-21T01:27:04.356Z,6.95
2023-04-21T01:29:34.659Z,7.22
2023-04-21T01:32:05.073Z,7.75
2023-04-21T01:34:31.621Z,7.35
2023-04-21T01:36:58.232Z,8.00
2023-04-21T01:39:24.656Z,6.90
2023-04-21T01:41:51.433Z,7.47
2023-04-21T01:44:18.115Z,7.40
2023-04-21T01:46:44.728Z,7.68
2023-04-21T01:49:11.181Z,7.85
2023-04-21T01:51:37.661Z,8.07
2023-04-21T01:54:04.232Z,6.72
2023-04-21T01:56:30.688Z,7.40
2023-04-21T01:58:57.361Z,6.88
2023-04-21T02:01:23.966Z,7.95
2023-04-21T02:03:50.857Z,8.07
2023-04-21T02:06:17.901Z,6.72
2023-04-21T02:08:44.378Z,7.60
2023-04-21T02:11:10.840Z,7.22
2023-04-21T02:13:37.474Z,6.40
2023-04-21T02:16:13.342Z,6.78
2023-04-21T02:18:41.346Z,6.85
2023-04-21T02:21:08.082Z,6.65
2023-04-21T02:23:34.520Z,6.35
2023-04-21T02:26:01.023Z,6.03
2023-04-21T02:28:27.557Z,6.90
2023-04-21T02:30:54.074Z,6.22
2023-04-21T02:33:20.623Z,6.82
2023-04-21T02:35:47.098Z,6.68
2023-04-21T02:38:13.544Z,6.70
2023-04-21T02:40:41.022Z,6.70
2023-04-21T02:43:07.874Z,5.78
2023-04-21T02:45:34.373Z,6.05
2023-04-21T02:48:00.905Z,6.25
2023-04-21T02:50:27.346Z,7.03
2023-04-21T02:52:54.502Z,6.32
2023-04-21T02:55:22.622Z,6.78
2023-04-21T02:57:49.117Z,6.53
2023-04-21T03:00:15.669Z,7.10
2023-04-21T03:02:42.395Z,6.50
2023-04-21T03:05:09.185Z,6.78
2023-04-21T03:07:35.790Z,6.65
2023-04-21T03:10:02.341Z,6.63
2023-04-21T03:12:28.882Z,7.13
2023-04-21T03:14:55.334Z,6.22
2023-04-21T03:17:21.854Z,6.90
2023-04-21T03:19:48.345Z,6.70
2023-04-21T03:22:14.802Z,7.72
2023-04-21T03:24:41.230Z,6.78
2023-04-21T03:27:09.761Z,7.07
2023-04-21T03:29:37.505Z,7.20
2023-04-21T03:32:04.073Z,7.82
2023-04-21T03:34:30.543Z,7.50
2023-04-21T03:36:57.049Z,7.25
2023-04-21T03:39:23.772Z,7.25
2023-04-21T03:41:51.629Z,7.50
2023-04-21T03:44:18.059Z,7.05
2023-04-21T03:46:44.528Z,7.60
2023-04-21T03:49:11.156Z,6.93
2023-04-21T03:51:37.673Z,6.90
2023-04-21T03:54:04.167Z,7.03
2023-04-21T03:56:30.706Z,7.00
2023-04-21T03:58:57.205Z,7.85
2023-04-21T04:01:23.692Z,8.15
2023-04-21T04:03:50.980Z,7.88
2023-04-21T04:06:17.801Z,8.02
2023-04-21T04:08:45.245Z,7.50
2023-04-21T04:11:11.789Z,7.60
2023-04-21T04:13:42.178Z,8.95
2023-04-21T04:16:08.784Z,7.57
2023-04-21T04:18:35.390Z,7.50
2023-04-21T04:21:08.348Z,7.85
2023-04-21T04:23:34.973Z,7.68
2023-04-21T04:26:01.712Z,9.75
2023-04-21T04:28:28.870Z,10.90
2023-04-21T04:30:55.392Z,9.93
2023-04-21T04:33:21.966Z,10.90
2023-04-21T04:35:48.444Z,10.30
2023-04-21T04:38:15.738Z,11.52
2023-04-21T04:40:42.693Z,11.02
2023-04-21T04:43:11.881Z,9.48
2023-04-21T04:45:40.718Z,8.48
2023-04-21T04:48:07.211Z,9.40
2023-04-21T04:50:33.739Z,9.77
2023-04-21T04:53:00.468Z,10.20
2023-04-21T04:55:26.984Z,10.23
2023-04-21T04:57:56.037Z,10.48
2023-04-21T05:00:22.859Z,11.35
2023-04-21T05:02:49.432Z,12.40
2023-04-21T05:05:16.076Z,12.05
2023-04-21T05:07:42.633Z,11.02
2023-04-21T05:10:09.398Z,13.18
2023-04-21T05:12:35.967Z,11.38
2023-04-21T05:15:02.413Z,12.00
2023-04-21T05:17:31.205Z,12.90
2023-04-21T05:19:57.840Z,11.75
2023-04-21T05:22:24.357Z,11.65
2023-04-21T05:24:50.896Z,10.98
2023-04-21T05:27:17.390Z,11.85
2023-04-21T05:29:43.992Z,10.30
2023-04-21T05:32:12.395Z,11.00
2023-04-21T05:34:39.040Z,10.82
2023-04-21T05:37:05.526Z,10.43
2023-04-21T05:39:32.034Z,9.95
2023-04-21T05:41:58.479Z,9.48
2023-04-21T05:44:25.649Z,9.48
2023-04-21T05:46:52.227Z,8.85
2023-04-21T05:49:18.869Z,9.30
2023-04-21T05:51:45.373Z,8.80
2023-04-21T05:54:11.793Z,8.70
2023-04-21T05:56:38.387Z,8.07
2023-04-21T05:59:06.931Z,8.60
2023-04-21T06:01:33.563Z,8.18
2023-04-21T06:04:00.441Z,8.07
2023-04-21T06:06:28.014Z,7.53
2023-04-21T06:08:54.548Z,7.55
2023-04-21T06:11:21.191Z,7.30
2023-04-21T06:13:47.935Z,7.28
2023-04-21T06:16:14.373Z,7.50
2023-04-21T06:18:40.910Z,7.80
2023-04-21T06:21:07.462Z,9.15
2023-04-21T06:23:33.951Z,8.77
2023-04-21T06:26:05.413Z,9.48
2023-04-21T06:28:32.529Z,8.48
2023-04-21T06:30:59.925Z,8.95
2023-04-21T06:33:26.901Z,8.65
2023-04-21T06:35:53.866Z,8.95
2023-04-21T06:38:20.520Z,8.93
2023-04-21T06:40:47.037Z,9.27
2023-04-21T06:43:13.599Z,7.43
2023-04-21T06:45:40.081Z,7.38
2023-04-21T06:48:07.224Z,7.13
2023-04-21T06:50:33.808Z,7.35
2023-04-21T06:53:00.302Z,6.95
2023-04-21T06:55:26.846Z,6.15
2023-04-21T06:57:53.876Z,6.28
2023-04-21T07:00:20.906Z,6.95
2023-04-21T07:02:47.412Z,6.18
2023-04-21T07:05:14.045Z,6.75
2023-04-21T07:07:40.581Z,6.28
2023-04-21T07:10:07.263Z,5.53
2023-04-21T07:12:33.824Z,5.15
2023-04-21T07:15:00.371Z,4.90
2023-04-21T07:17:27.068Z,5.38
2023-04-21T07:19:53.637Z,5.78
2023-04-21T07:22:20.100Z,5.53
2023-04-21T07:24:47.622Z,4.75
2023-04-21T07:27:15.707Z,4.93
2023-04-21T07:29:42.168Z,4.53
2023-04-21T07:32:08.690Z,5.20
2023-04-21T07:34:35.224Z,5.15
2023-04-21T07:37:01.684Z,4.93
2023-04-21T07:39:28.134Z,4.50
2023-04-21T07:41:55.863Z,4.43
2023-04-21T07:44:22.445Z,4.30
2023-04-21T07:46:48.948Z,4.65
2023-04-21T07:49:15.589Z,4.50
2023-04-21T07:51:42.041Z,4.45
2023-04-21T07:54:08.613Z,5.05
2023-04-21T07:56:35.102Z,4.13
2023-04-21T07:59:01.586Z,3.95
2023-04-21T08:01:28.024Z,4.22
2023-04-21T08:03:54.528Z,4.00
2023-04-21T08:06:21.563Z,3.83
2023-04-21T08:08:48.133Z,3.78
2023-04-21T08:11:14.706Z,3.88
2023-04-21T08:13:41.367Z,3.42
2023-04-21T08:16:08.074Z,4.28
2023-04-21T08:18:34.574Z,3.33
2023-04-21T08:21:02.352Z,3.28
2023-04-21T08:23:32.259Z,4.38
2023-04-21T08:25:58.997Z,3.75
2023-04-21T08:28:25.497Z,4.15
2023-04-21T08:30:51.961Z,3.83
2023-04-21T08:33:18.694Z,3.60
2023-04-21T08:35:58.909Z,3.85
2023-04-21T08:38:29.399Z,4.43
2023-04-21T08:40:56.389Z,4.05
2023-04-21T08:43:22.840Z,3.55
2023-04-21T08:45:50.052Z,3.80
2023-04-21T08:48:18.754Z,3.75
2023-04-21T08:50:46.720Z,3.92
2023-04-21T08:53:13.714Z,3.38
2023-04-21T08:55:40.840Z,2.80
2023-04-21T08:58:09.141Z,3.30
2023-04-21T09:00:36.275Z,3.17
2023-04-21T09:03:06.994Z,3.03
2023-04-21T09:05:41.886Z,3.58
2023-04-21T09:08:10.911Z,3.90
2023-04-21T09:10:48.190Z,2.95
2023-04-21T09:13:15.304Z,3.33
2023-04-21T09:15:42.618Z,3.35
2023-04-21T09:18:19.742Z,3.90
2023-04-21T09:20:46.896Z,3.47
2023-04-21T09:23:13.451Z,3.50
2023-04-21T09:25:40.744Z,3.60
2023-04-21T09:28:11.128Z,3.88
2023-04-21T09:30:38.557Z,3.97
2023-04-21T09:33:13.505Z,3.85
2023-04-21T09:35:48.094Z,3.25
2023-04-21T09:38:15.737Z,2.90
2023-04-21T09:40:42.212Z,3.72
2023-04-21T09:43:09.276Z,2.97
2023-04-21T09:45:40.277Z,3.35
2023-04-21T09:48:08.840Z,3.35
2023-04-21T09:51:11.465Z,3.58
2023-04-21T09:53:24.399Z,2.90
2023-04-21T09:55:51.713Z,3.38
2023-04-21T09:58:20.416Z,4.00
2023-04-21T10:00:47.003Z,3.42
2023-04-21T10:03:14.489Z,3.50
2023-04-21T10:05:43.103Z,3.45
2023-04-21T10:08:11.654Z,2.90
2023-04-21T10:10:38.784Z,3.28
2023-04-21T10:13:05.767Z,2.97
2023-04-21T10:15:39.908Z,2.72
2023-04-21T10:18:13.704Z,3.25
2023-04-21T10:21:06.794Z,3.22
2023-04-21T10:23:37.269Z,3.85
2023-04-21T10:26:12.840Z,3.00
2023-04-21T10:28:40.979Z,3.20
2023-04-21T10:31:17.369Z,3.10
2023-04-21T10:34:03.849Z,3.00
2023-04-21T10:36:30.919Z,2.85
2023-04-21T10:39:00.951Z,3.33
2023-04-21T10:41:31.175Z,3.63
2023-04-21T10:43:58.162Z,3.33
2023-04-21T10:46:36.739Z,3.05
2023-04-21T10:49:20.756Z,3.38
2023-04-21T10:51:59.565Z,2.67
2023-04-21T10:54:26.462Z,3.45
2023-04-21T10:56:55.333Z,2.80
2023-04-21T10:59:22.447Z,3.55
2023-04-21T11:01:49.008Z,3.20
2023-04-21T11:04:19.839Z,3.13
2023-04-21T11:07:05.241Z,3.22
2023-04-21T11:09:31.756Z,3.53
2023-04-21T11:12:04.578Z,3.08
2023-04-21T11:14:37.041Z,3.33
2023-04-21T11:17:04.461Z,3.30
2023-04-21T11:19:33.894Z,3.60
2023-04-21T11:22:00.549Z,3.33
2023-04-21T11:24:27.136Z,3.33
2023-04-21T11:26:53.869Z,3.67
2023-04-21T11:29:20.329Z,3.78
2023-04-21T11:31:53.773Z,5.75
2023-04-21T11:34:21.437Z,5.88
2023-04-21T11:36:48.901Z,5.00
2023-04-21T11:39:16.821Z,3.25
2023-04-21T11:41:44.733Z,3.58
2023-04-21T11:44:31.179Z,3.40
2023-04-21T11:47:14.745Z,2.83
2023-04-21T11:49:57.195Z,2.72
2023-04-21T11:52:27.435Z,3.20
2023-04-21T11:54:58.563Z,3.40
2023-04-21T11:57:25.624Z,3.20
2023-04-21T11:59:52.837Z,3.10
2023-04-21T12:02:26.863Z,3.35
2023-04-21T12:04:57.149Z,2.47
2023-04-21T12:07:29.513Z,2.90
2023-04-21T12:09:56.445Z,2.67
2023-04-21T12:12:24.370Z,2.50
2023-04-21T12:14:51.767Z,2.63
2023-04-21T12:17:18.292Z,3.15
2023-04-21T12:19:50.592Z,2.55
2023-04-21T12:22:23.016Z,3.00
2023-04-21T12:24:52.549Z,3.03
2023-04-21T12:27:19.244Z,2.50
2023-04-21T12:29:45.881Z,2.50
2023-04-21T12:32:12.910Z,2.80
2023-04-21T12:34:39.405Z,2.70
2023-04-21T12:37:06.307Z,2.42
2023-04-21T12:39:33.391Z,2.72
2023-04-21T12:42:00.158Z,2.70
2023-04-21T12:44:26.896Z,2.47
2023-04-21T12:46:53.504Z,2.67
2023-04-21T12:49:20.301Z,2.45
2023-04-21T12:51:47.244Z,2.70
2023-04-21T12:54:14.052Z,2.47
2023-04-21T12:56:42.212Z,2.53
2023-04-21T12:59:10.436Z,2.40
2023-04-21T13:01:40.746Z,2.58
2023-04-21T13:04:07.833Z,2.20
2023-04-21T13:06:34.835Z,2.65
2023-04-21T13:09:01.849Z,2.60
2023-04-21T13:11:28.481Z,2.40
2023-04-21T13:13:54.974Z,2.20
2023-04-21T13:16:21.525Z,2.42
2023-04-21T13:18:48.027Z,2.40
2023-04-21T13:21:14.593Z,2.47
2023-04-21T13:23:41.307Z,2.35
2023-04-21T13:26:07.941Z,2.33
2023-04-21T13:28:34.642Z,2.80
2023-04-21T13:31:03.055Z,2.10
2023-04-21T13:33:29.681Z,2.40
2023-04-21T13:35:56.126Z,2.90
2023-04-21T13:38:24.094Z,2.40
2023-04-21T13:40:51.206Z,2.17
2023-04-21T13:43:17.762Z,1.98
2023-04-21T13:45:44.342Z,2.17
2023-04-21T13:48:11.277Z,2.20
2023-04-21T13:50:37.943Z,2.00
2023-04-21T13:53:04.632Z,2.10
2023-04-21T13:55:31.322Z,1.95
2023-04-21T13:58:01.488Z,2.72
2023-04-21T14:00:27.969Z,1.90
2023-04-21T14:02:56.037Z,2.42
2023-04-21T14:05:22.942Z,2.45
2023-04-21T14:07:49.501Z,2.20
2023-04-21T14:10:16.058Z,2.22
2023-04-21T14:12:44.924Z,2.20
2023-04-21T14:15:12.289Z,2.58
2023-04-21T14:17:38.954Z,2.50
2023-04-21T14:20:07.436Z,2.25
2023-04-21T14:22:33.932Z,2.75
2023-04-21T14:25:00.500Z,2.75
2023-04-21T14:27:26.963Z,2.30
2023-04-21T14:29:53.506Z,2.47
2023-04-21T14:32:20.887Z,2.03
2023-04-21T14:34:48.126Z,2.45
2023-04-21T14:37:14.597Z,2.40
2023-04-21T14:39:41.253Z,2.60
2023-04-21T14:42:07.681Z,2.60
2023-04-21T14:44:35.521Z,2.45
2023-04-21T14:47:09.930Z,2.65
2023-04-21T14:49:38.101Z,2.72
2023-04-21T14:52:04.754Z,2.22
2023-04-21T14:54:31.357Z,2.33
2023-04-21T14:57:10.450Z,2.40
2023-04-21T14:59:46.534Z,2.40
2023-04-21T15:02:13.513Z,2.35
2023-04-21T15:04:40.359Z,2.50
2023-04-21T15:07:07.060Z,2.67
2023-04-21T15:09:34.021Z,2.58
2023-04-21T15:12:00.720Z,2.80
2023-04-21T15:14:27.621Z,2.85
2023-04-21T15:16:54.141Z,2.60
2023-04-21T15:19:21.712Z,3.10
2023-04-21T15:21:49.225Z,2.85
2023-04-21T15:24:15.709Z,2.05
2023-04-21T15:26:42.292Z,2.58
2023-04-21T15:29:10.526Z,2.60
2023-04-21T15:31:37.682Z,2.38
2023-04-21T15:34:04.267Z,2.20
2023-04-21T15:36:32.016Z,2.30
2023-04-21T15:38:58.496Z,2.28
2023-04-21T15:41:25.959Z,2.63
2023-04-21T15:43:52.559Z,2.60
2023-04-21T15:46:19.073Z,2.63
2023-04-21T15:48:45.675Z,2.80
2023-04-21T15:51:12.781Z,2.80
2023-04-21T15:53:43.910Z,2.85
2023-04-21T15:56:13.951Z,2.63
2023-04-21T15:58:41.682Z,3.30
2023-04-21T16:01:08.446Z,3.22
2023-04-21T16:03:35.450Z,3.35
2023-04-21T16:06:02.131Z,3.20
2023-04-21T16:08:29.022Z,3.30
2023-04-21T16:10:58.201Z,3.33
2023-04-21T16:13:24.725Z,4.43
2023-04-21T16:15:51.713Z,3.40
2023-04-21T16:18:18.252Z,2.97
2023-04-21T16:20:46.061Z,3.58
2023-04-21T16:23:13.071Z,3.08
2023-04-21T16:25:39.763Z,3.47
2023-04-21T16:28:09.899Z,3.30
2023-04-21T16:30:36.626Z,3.47
2023-04-21T16:33:03.174Z,3.10
2023-04-21T16:35:30.374Z,3.17
2023-04-21T16:37:56.977Z,3.58
2023-04-21T16:40:24.558Z,3.13
2023-04-21T16:43:00.202Z,3.08
2023-04-21T16:45:28.767Z,3.08
2023-04-21T16:47:56.274Z,3.38
2023-04-21T16:50:23.241Z,3.40
2023-04-21T16:52:49.792Z,2.88
2023-04-21T16:55:16.351Z,3.15
2023-04-21T16:57:42.890Z,3.00
2023-04-21T17:00:10.406Z,3.25
2023-04-21T17:02:37.101Z,3.28
2023-04-21T17:05:04.074Z,3.42
2023-04-21T17:07:32.135Z,3.00
2023-04-21T17:10:05.972Z,3.42
2023-04-21T17:12:33.457Z,3.72
2023-04-21T17:14:59.918Z,3.50
2023-04-21T17:17:26.580Z,3.47
2023-04-21T17:19:53.854Z,3.60
2023-04-21T17:22:20.730Z,3.38
2023-04-21T17:24:53.387Z,3.85
2023-04-21T17:27:21.066Z,3.70
2023-04-21T17:29:47.951Z,4.78
2023-04-21T17:32:14.607Z,5.35
2023-04-21T17:34:41.233Z,6.95
2023-04-21T17:37:07.962Z,7.82
2023-04-21T17:39:34.508Z,6.85
2023-04-21T17:42:02.618Z,5.75
2023-04-21T17:44:29.320Z,5.80
2023-04-21T17:46:55.951Z,5.78
2023-04-21T17:49:24.780Z,5.15
2023-04-21T17:51:51.723Z,4.80
2023-04-21T17:54:18.448Z,3.83
2023-04-21T17:56:46.230Z,4.18
2023-04-21T17:59:12.967Z,4.05
2023-04-21T18:01:39.474Z,4.20
2023-04-21T18:04:06.127Z,3.47
2023-04-21T18:06:32.683Z,4.10
2023-04-21T18:08:59.181Z,3.38
2023-04-21T18:11:25.677Z,3.55
2023-04-21T18:13:52.940Z,4.50
2023-04-21T18:16:19.528Z,4.22
2023-04-21T18:18:47.381Z,4.13
2023-04-21T18:21:14.452Z,4.30
2023-04-21T18:23:41.030Z,4.15
2023-04-21T18:26:08.421Z,4.38
2023-04-21T18:28:34.907Z,3.85
2023-04-21T18:31:01.747Z,4.00
2023-04-21T18:33:28.540Z,4.60
2023-04-21T18:35:55.069Z,3.80
2023-04-21T18:38:21.555Z,3.25
2023-04-21T18:40:48.047Z,3.40
2023-04-21T18:43:14.881Z,3.28
2023-04-21T18:45:41.451Z,3.53
2023-04-21T18:48:08.174Z,3.83
2023-04-21T18:50:39.475Z,3.13
2023-04-21T18:53:07.395Z,3.45
2023-04-21T18:55:35.908Z,3.78
2023-04-21T18:58:02.567Z,3.60
2023-04-21T19:00:29.802Z,2.88
2023-04-21T19:02:56.508Z,3.80
2023-04-21T19:05:23.156Z,3.50
2023-04-21T19:07:49.738Z,2.97
2023-04-21T19:10:16.778Z,3.25
2023-04-21T19:12:43.689Z,4.25
2023-04-21T19:15:10.260Z,3.58
2023-04-21T19:17:36.804Z,3.47
2023-04-21T19:20:03.406Z,3.70
2023-04-21T19:22:31.962Z,3.42
2023-04-21T19:24:58.477Z,3.15
2023-04-21T19:27:25.051Z,3.70
2023-04-21T19:29:51.607Z,3.70
2023-04-21T19:32:18.201Z,3.45
2023-04-21T19:34:44.957Z,3.35
2023-04-21T19:37:11.539Z,3.30
2023-04-21T19:39:38.017Z,3.30
2023-04-21T19:42:04.835Z,3.03
2023-04-21T19:44:31.555Z,3.80
2023-04-21T19:46:58.160Z,3.22
2023-04-21T19:49:24.620Z,3.42
2023-04-21T19:51:51.782Z,3.25
2023-04-21T19:54:18.285Z,3.33
2023-04-21T19:56:44.977Z,3.53
2023-04-21T19:59:11.527Z,3.40
2023-04-21T20:01:38.182Z,3.55
2023-04-21T20:04:05.552Z,3.53
2023-04-21T20:06:33.850Z,3.30
2023-04-21T20:09:05.670Z,3.25
2023-04-21T20:11:33.697Z,2.75
2023-04-21T20:14:00.252Z,3.28
2023-04-21T20:16:27.310Z,3.30
2023-04-21T20:18:54.240Z,2.97
2023-04-21T20:21:20.724Z,3.00
2023-04-21T20:23:47.294Z,3.45
2023-04-21T20:26:13.804Z,3.10
2023-04-21T20:28:40.246Z,3.10
2023-04-21T20:31:07.024Z,3.50
2023-04-21T20:33:33.898Z,3.50
2023-04-21T20:36:04.227Z,3.65
2023-04-21T20:38:34.392Z,3.45
2023-04-21T20:41:01.488Z,3.35
2023-04-21T20:43:28.285Z,4.38
2023-04-21T20:45:55.372Z,3.33
2023-04-21T20:48:22.240Z,3.38
2023-04-21T20:50:51.254Z,3.65
2023-04-21T20:53:18.249Z,2.90
2023-04-21T20:55:44.757Z,3.78
2023-04-21T20:58:11.305Z,3.40
2023-04-21T21:00:37.855Z,3.47
2023-04-21T21:03:09.921Z,3.53
2023-04-21T21:05:37.756Z,3.83
2023-04-21T21:08:04.947Z,3.80
2023-04-21T21:10:37.005Z,4.10
2023-04-21T21:13:03.631Z,3.30
2023-04-21T21:15:33.871Z,2.92
2023-04-21T21:18:00.933Z,3.47
2023-04-21T21:20:27.426Z,3.33
2023-04-21T21:22:54.096Z,3.55
2023-04-21T21:25:20.626Z,3.40
2023-04-21T21:27:47.251Z,3.47
2023-04-21T21:30:13.830Z,3.15
2023-04-21T21:32:40.337Z,3.47
2023-04-21T21:35:09.391Z,3.40
2023-04-21T21:37:36.213Z,3.72
2023-04-21T21:40:02.689Z,2.83
2023-04-21T21:42:29.229Z,3.65
2023-04-21T21:44:55.711Z,3.40
2023-04-21T21:47:22.302Z,3.15
2023-04-21T21:49:49.031Z,2.70
2023-04-21T21:52:15.517Z,3.38
2023-04-21T21:54:42.014Z,3.28
2023-04-21T21:57:08.585Z,3.05
2023-04-21T21:59:35.092Z,3.53
2023-04-21T22:02:01.831Z,3.55
2023-04-21T22:04:28.481Z,3.20
2023-04-21T22:06:54.917Z,3.55
2023-04-21T22:09:21.471Z,3.33
2023-04-21T22:11:48.013Z,3.88
2023-04-21T22:14:22.069Z,3.53
2023-04-21T22:16:50.561Z,3.30
2023-04-21T22:19:19.160Z,3.25
2023-04-21T22:21:45.878Z,3.35
2023-04-21T22:24:12.398Z,3.50
2023-04-21T22:26:38.953Z,3.80
2023-04-21T22:29:05.999Z,3.53
2023-04-21T22:31:32.494Z,3.47
2023-04-21T22:33:58.997Z,3.33
2023-04-21T22:36:25.453Z,3.92
2023-04-21T22:38:52.262Z,3.25
2023-04-21T22:41:18.818Z,3.55
2023-04-21T22:43:45.280Z,3.10
2023-04-21T22:46:12.306Z,3.70
2023-04-21T22:48:38.826Z,3.80
2023-04-21T22:51:06.391Z,3.28
2023-04-21T22:53:33.421Z,3.78
2023-04-21T22:55:59.895Z,3.83
2023-04-21T22:58:26.518Z,3.70
2023-04-21T23:00:53.067Z,3.63
2023-04-21T23:03:19.655Z,4.00
2023-04-21T23:05:46.251Z,3.65
2023-04-21T23:08:12.687Z,3.55
2023-04-21T23:10:39.169Z,3.53
2023-04-21T23:13:05.955Z,3.60
2023-04-21T23:15:33.415Z,3.20
2023-04-21T23:18:00.062Z,3.60
2023-04-21T23:20:27.010Z,3.63
2023-04-21T23:22:53.944Z,4.18
2023-04-21T23:25:20.804Z,3.35
2023-04-21T23:27:47.308Z,3.38
2023-04-21T23:30:14.001Z,3.45
2023-04-21T23:32:41.267Z,3.50
2023-04-21T23:35:08.143Z,3.22
2023-04-21T23:37:34.607Z,3.47
2023-04-21T23:40:01.152Z,3.92
2023-04-21T23:42:27.732Z,3.63
2023-04-21T23:44:54.181Z,3.63
2023-04-21T23:47:20.775Z,3.72
2023-04-21T23:49:47.308Z,3.17
2023-04-21T23:52:14.958Z,3.50
2023-04-21T23:54:41.539Z,3.72
2023-04-21T23:57:08.092Z,4.25
2023-04-21T23:59:35.266Z,3.88
